sensor_id;sensor_type;location;lat;lon;timestamp;P1;durP1;ratioP1;P2;durP2;ratioP2
40170;SDS011;37650;52.790;18.268;2022-12-07T07:20:50;29.60;;;18.10;;
40170;SDS011;37650;52.790;18.268;2022-12-07T07:24:12;25.70;;;16.50;;
40170;SDS011;37650;52.790;18.268;2022-12-07T07:27:33;23.60;;;14.70;;
40170;SDS011;37650;52.790;18.268;2022-12-07T07:30:54;21.40;;;15.40;;
40170;SDS011;37650;52.790;18.268;2022-12-07T07:34:16;17.80;;;14.90;;
40170;SDS011;37650;52.790;18.268;2022-12-07T07:37:37;16.20;;;12.80;;
40170;SDS011;37650;52.790;18.268;2022-12-07T07:40:59;15.50;;;12.00;;
40170;SDS011;37650;52.790;18.268;2022-12-07T07:44:20;14.50;;;11.50;;
40170;SDS011;37650;52.790;18.268;2022-12-07T07:47:42;13.40;;;11.30;;
40170;SDS011;37650;52.790;18.268;2022-12-07T07:51:07;12.60;;;10.40;;
40170;SDS011;37650;52.790;18.268;2022-12-07T07:54:29;12.60;;;9.90;;
40170;SDS011;37650;52.790;18.268;2022-12-07T07:57:50;14.40;;;9.60;;
40170;SDS011;37650;52.790;18.268;2022-12-07T08:01:11;10.60;;;8.80;;
40170;SDS011;37650;52.790;18.268;2022-12-07T08:04:34;14.00;;;11.50;;
40170;SDS011;37650;52.790;18.268;2022-12-07T08:07:57;13.80;;;10.00;;
40170;SDS011;37650;52.790;18.268;2022-12-07T08:11:18;12.30;;;9.70;;
40170;SDS011;37650;52.790;18.268;2022-12-07T08:14:39;12.80;;;9.10;;
40170;SDS011;37650;52.790;18.268;2022-12-07T08:18:01;11.50;;;8.40;;
40170;SDS011;37650;52.790;18.268;2022-12-07T08:21:22;11.50;;;8.60;;
40170;SDS011;37650;52.790;18.268;2022-12-07T08:24:44;9.70;;;8.20;;
40170;SDS011;37650;52.790;18.268;2022-12-07T08:28:05;9.80;;;7.60;;
40170;SDS011;37650;52.790;18.268;2022-12-07T08:31:27;9.90;;;8.40;;
40170;SDS011;37650;52.790;18.268;2022-12-07T08:34:49;8.70;;;6.90;;
40170;SDS011;37650;52.790;18.268;2022-12-07T08:38:10;10.00;;;7.70;;
40170;SDS011;37650;52.790;18.268;2022-12-07T08:41:32;9.00;;;8.00;;
40170;SDS011;37650;52.790;18.268;2022-12-07T08:44:53;10.20;;;7.70;;
40170;SDS011;37650;52.790;18.268;2022-12-07T08:48:15;11.10;;;8.20;;
40170;SDS011;37650;52.790;18.268;2022-12-07T08:51:39;10.30;;;8.20;;
40170;SDS011;37650;52.790;18.268;2022-12-07T08:55:01;10.90;;;8.60;;
40170;SDS011;37650;52.790;18.268;2022-12-07T08:58:24;22.40;;;14.60;;
40170;SDS011;37650;52.790;18.268;2022-12-07T09:01:45;39.50;;;24.80;;
40170;SDS011;37650;52.790;18.268;2022-12-07T09:05:07;28.20;;;18.60;;
40170;SDS011;37650;52.790;18.268;2022-12-07T09:08:39;24.60;;;14.40;;
40170;SDS011;37650;52.790;18.268;2022-12-07T09:12:04;14.50;;;9.50;;
40170;SDS011;37650;52.790;18.268;2022-12-07T09:15:29;12.80;;;9.40;;
40170;SDS011;37650;52.790;18.268;2022-12-07T09:18:51;16.20;;;11.80;;
40170;SDS011;37650;52.790;18.268;2022-12-07T09:22:12;16.10;;;10.20;;
40170;SDS011;37650;52.790;18.268;2022-12-07T09:25:34;12.40;;;9.30;;
40170;SDS011;37650;52.790;18.268;2022-12-07T09:28:56;11.00;;;8.80;;
40170;SDS011;37650;52.790;18.268;2022-12-07T09:32:17;13.90;;;10.10;;
40170;SDS011;37650;52.790;18.268;2022-12-07T09:35:43;13.90;;;9.50;;
40170;SDS011;37650;52.790;18.268;2022-12-07T09:39:05;13.10;;;10.00;;
40170;SDS011;37650;52.790;18.268;2022-12-07T09:45:48;11.80;;;8.60;;
40170;SDS011;37650;52.790;18.268;2022-12-07T09:49:18;12.70;;;9.30;;
40170;SDS011;37650;52.790;18.268;2022-12-07T09:52:45;11.40;;;9.30;;
40170;SDS011;37650;52.790;18.268;2022-12-07T09:56:11;10.20;;;8.40;;
40170;SDS011;37650;52.790;18.268;2022-12-07T09:59:34;11.20;;;8.80;;
40170;SDS011;37650;52.790;18.268;2022-12-07T10:02:56;11.30;;;9.30;;
40170;SDS011;37650;52.790;18.268;2022-12-07T10:06:19;13.40;;;9.60;;
40170;SDS011;37650;52.790;18.268;2022-12-07T10:09:41;12.00;;;9.10;;
40170;SDS011;37650;52.790;18.268;2022-12-07T10:13:14;13.30;;;9.30;;
40170;SDS011;37650;52.790;18.268;2022-12-07T10:16:41;11.30;;;8.60;;
40170;SDS011;37650;52.790;18.268;2022-12-07T10:23:33;12.70;;;8.90;;
40170;SDS011;37650;52.790;18.268;2022-12-07T10:26:54;10.40;;;7.60;;
40170;SDS011;37650;52.790;18.268;2022-12-07T10:30:16;10.80;;;8.00;;
40170;SDS011;37650;52.790;18.268;2022-12-07T10:33:38;9.60;;;7.30;;
40170;SDS011;37650;52.790;18.268;2022-12-07T10:40:45;8.60;;;6.50;;
40170;SDS011;37650;52.790;18.268;2022-12-07T10:44:07;9.40;;;6.80;;
40170;SDS011;37650;52.790;18.268;2022-12-07T10:52:01;8.00;;;6.10;;
40170;SDS011;37650;52.790;18.268;2022-12-07T10:55:08;8.60;;;6.30;;
40170;SDS011;37650;52.790;18.268;2022-12-07T11:17:31;8.70;;;7.30;;
40170;SDS011;37650;52.790;18.268;2022-12-07T11:25:02;8.90;;;6.80;;
40170;SDS011;37650;52.790;18.268;2022-12-07T11:35:48;8.60;;;7.60;;
40170;SDS011;37650;52.790;18.268;2022-12-07T11:39:26;9.70;;;8.50;;
40170;SDS011;37650;52.790;18.268;2022-12-07T11:43:17;10.60;;;8.60;;
40170;SDS011;37650;52.790;18.268;2022-12-07T11:46:48;11.00;;;8.70;;
40170;SDS011;37650;52.790;18.268;2022-12-07T11:50:26;11.60;;;9.80;;
40170;SDS011;37650;52.790;18.268;2022-12-07T11:53:50;12.70;;;10.70;;
40170;SDS011;37650;52.790;18.268;2022-12-07T11:57:18;12.70;;;10.40;;
40170;SDS011;37650;52.790;18.268;2022-12-07T12:00:48;14.30;;;10.70;;
40170;SDS011;37650;52.790;18.268;2022-12-07T12:07:47;21.50;;;14.60;;
40170;SDS011;37650;52.790;18.268;2022-12-07T12:11:47;13.60;;;10.70;;
40170;SDS011;37650;52.790;18.268;2022-12-07T12:22:45;13.70;;;9.60;;
40170;SDS011;37650;52.790;18.268;2022-12-07T12:26:22;13.30;;;9.40;;
40170;SDS011;37650;52.790;18.268;2022-12-07T12:29:50;10.90;;;8.30;;
40170;SDS011;37650;52.790;18.268;2022-12-07T12:33:28;16.10;;;9.80;;
40170;SDS011;37650;52.790;18.268;2022-12-07T12:36:51;14.70;;;10.40;;
40170;SDS011;37650;52.790;18.268;2022-12-07T12:43:39;11.40;;;7.90;;
40170;SDS011;37650;52.790;18.268;2022-12-07T12:58:40;18.70;;;13.40;;
40170;SDS011;37650;52.790;18.268;2022-12-07T13:02:15;14.50;;;11.50;;
40170;SDS011;37650;52.790;18.268;2022-12-07T13:05:37;15.60;;;12.00;;
40170;SDS011;37650;52.790;18.268;2022-12-07T13:08:59;15.20;;;12.20;;
40170;SDS011;37650;52.790;18.268;2022-12-07T13:12:21;16.90;;;12.60;;
40170;SDS011;37650;52.790;18.268;2022-12-07T13:23:03;13.60;;;10.00;;
40170;SDS011;37650;52.790;18.268;2022-12-07T13:29:50;16.30;;;10.90;;
40170;SDS011;37650;52.790;18.268;2022-12-07T13:33:12;32.10;;;25.30;;
40170;SDS011;37650;52.790;18.268;2022-12-07T13:36:38;24.30;;;17.20;;
40170;SDS011;37650;52.790;18.268;2022-12-07T13:40:01;21.30;;;13.90;;
40170;SDS011;37650;52.790;18.268;2022-12-07T13:44:21;28.90;;;20.20;;
40170;SDS011;37650;52.790;18.268;2022-12-07T13:47:41;17.60;;;12.70;;
40170;SDS011;37650;52.790;18.268;2022-12-07T13:51:16;19.40;;;13.10;;
40170;SDS011;37650;52.790;18.268;2022-12-07T13:54:44;39.00;;;26.30;;
40170;SDS011;37650;52.790;18.268;2022-12-07T13:58:09;30.90;;;20.70;;
40170;SDS011;37650;52.790;18.268;2022-12-07T14:01:31;31.20;;;20.40;;
40170;SDS011;37650;52.790;18.268;2022-12-07T14:05:05;35.90;;;22.50;;
40170;SDS011;37650;52.790;18.268;2022-12-07T14:08:43;31.80;;;19.60;;
40170;SDS011;37650;52.790;18.268;2022-12-07T14:12:05;21.40;;;13.10;;
40170;SDS011;37650;52.790;18.268;2022-12-07T14:15:28;17.90;;;11.70;;
40170;SDS011;37650;52.790;18.268;2022-12-07T14:18:51;18.20;;;11.80;;
40170;SDS011;37650;52.790;18.268;2022-12-07T14:22:18;16.00;;;10.70;;
40170;SDS011;37650;52.790;18.268;2022-12-07T14:25:47;16.90;;;10.10;;
40170;SDS011;37650;52.790;18.268;2022-12-07T14:29:20;13.80;;;9.50;;
40170;SDS011;37650;52.790;18.268;2022-12-07T14:32:50;13.20;;;9.00;;
40170;SDS011;37650;52.790;18.268;2022-12-07T14:36:14;15.30;;;9.80;;
40170;SDS011;37650;52.790;18.268;2022-12-07T14:39:35;12.30;;;8.60;;
40170;SDS011;37650;52.790;18.268;2022-12-07T14:43:08;10.80;;;7.80;;
40170;SDS011;37650;52.790;18.268;2022-12-07T14:46:31;14.70;;;9.80;;
40170;SDS011;37650;52.790;18.268;2022-12-07T14:49:52;11.10;;;8.10;;
40170;SDS011;37650;52.790;18.268;2022-12-07T14:53:14;9.40;;;7.20;;
40170;SDS011;37650;52.790;18.268;2022-12-07T14:56:37;10.20;;;8.50;;
40170;SDS011;37650;52.790;18.268;2022-12-07T14:59:58;11.60;;;8.10;;
40170;SDS011;37650;52.790;18.268;2022-12-07T15:03:19;13.90;;;9.90;;
40170;SDS011;37650;52.790;18.268;2022-12-07T15:06:41;10.10;;;7.00;;
40170;SDS011;37650;52.790;18.268;2022-12-07T15:10:04;10.40;;;7.20;;
40170;SDS011;37650;52.790;18.268;2022-12-07T15:13:27;11.80;;;7.70;;
40170;SDS011;37650;52.790;18.268;2022-12-07T15:17:09;15.10;;;9.40;;
40170;SDS011;37650;52.790;18.268;2022-12-07T15:20:31;13.00;;;9.30;;
40170;SDS011;37650;52.790;18.268;2022-12-07T15:23:53;13.40;;;9.60;;
40170;SDS011;37650;52.790;18.268;2022-12-07T15:27:14;10.90;;;8.00;;
40170;SDS011;37650;52.790;18.268;2022-12-07T15:30:38;11.30;;;7.30;;
40170;SDS011;37650;52.790;18.268;2022-12-07T15:34:02;11.00;;;8.00;;
40170;SDS011;37650;52.790;18.268;2022-12-07T15:37:24;11.10;;;7.20;;
40170;SDS011;37650;52.790;18.268;2022-12-07T15:40:47;10.50;;;7.30;;
40170;SDS011;37650;52.790;18.268;2022-12-07T15:44:12;9.00;;;6.70;;
40170;SDS011;37650;52.790;18.268;2022-12-07T15:47:53;12.60;;;7.70;;
40170;SDS011;37650;52.790;18.268;2022-12-07T15:51:15;11.40;;;7.70;;
40170;SDS011;37650;52.790;18.268;2022-12-07T15:54:37;11.60;;;8.40;;
40170;SDS011;37650;52.790;18.268;2022-12-07T15:57:58;10.50;;;7.60;;
40170;SDS011;37650;52.790;18.268;2022-12-07T16:01:21;8.90;;;6.50;;
40170;SDS011;37650;52.790;18.268;2022-12-07T16:04:43;8.90;;;6.80;;
40170;SDS011;37650;52.790;18.268;2022-12-07T16:08:05;9.20;;;6.70;;
40170;SDS011;37650;52.790;18.268;2022-12-07T16:11:27;9.80;;;7.60;;
40170;SDS011;37650;52.790;18.268;2022-12-07T16:14:48;9.30;;;7.60;;
40170;SDS011;37650;52.790;18.268;2022-12-07T16:18:09;10.40;;;7.70;;
40170;SDS011;37650;52.790;18.268;2022-12-07T16:21:30;10.20;;;7.10;;
40170;SDS011;37650;52.790;18.268;2022-12-07T16:24:51;23.10;;;14.10;;
40170;SDS011;37650;52.790;18.268;2022-12-07T16:28:13;34.10;;;20.50;;
40170;SDS011;37650;52.790;18.268;2022-12-07T16:31:34;20.70;;;14.60;;
40170;SDS011;37650;52.790;18.268;2022-12-07T16:34:55;11.80;;;9.30;;
40170;SDS011;37650;52.790;18.268;2022-12-07T16:38:16;13.80;;;9.50;;
40170;SDS011;37650;52.790;18.268;2022-12-07T16:41:38;17.00;;;10.70;;
40170;SDS011;37650;52.790;18.268;2022-12-07T16:44:59;13.30;;;9.60;;
40170;SDS011;37650;52.790;18.268;2022-12-07T16:48:21;13.70;;;10.30;;
40170;SDS011;37650;52.790;18.268;2022-12-07T16:51:43;14.10;;;11.10;;
40170;SDS011;37650;52.790;18.268;2022-12-07T16:55:04;10.90;;;9.10;;
40170;SDS011;37650;52.790;18.268;2022-12-07T16:58:26;14.00;;;9.80;;
40170;SDS011;37650;52.790;18.268;2022-12-07T17:01:47;11.60;;;9.70;;
40170;SDS011;37650;52.790;18.268;2022-12-07T17:05:09;11.80;;;8.70;;
40170;SDS011;37650;52.790;18.268;2022-12-07T17:08:30;11.30;;;8.40;;
40170;SDS011;37650;52.790;18.268;2022-12-07T17:11:51;14.70;;;10.30;;
40170;SDS011;37650;52.790;18.268;2022-12-07T17:15:12;17.60;;;11.30;;
40170;SDS011;37650;52.790;18.268;2022-12-07T17:18:37;14.40;;;10.10;;
40170;SDS011;37650;52.790;18.268;2022-12-07T17:21:58;10.30;;;6.80;;
40170;SDS011;37650;52.790;18.268;2022-12-07T17:25:19;8.60;;;6.10;;
40170;SDS011;37650;52.790;18.268;2022-12-07T17:28:41;10.30;;;7.00;;
40170;SDS011;37650;52.790;18.268;2022-12-07T17:32:02;10.30;;;6.80;;
40170;SDS011;37650;52.790;18.268;2022-12-07T17:35:24;7.90;;;6.30;;
40170;SDS011;37650;52.790;18.268;2022-12-07T17:38:46;7.60;;;5.60;;
40170;SDS011;37650;52.790;18.268;2022-12-07T17:42:08;8.20;;;6.40;;
40170;SDS011;37650;52.790;18.268;2022-12-07T17:45:50;9.10;;;6.10;;
40170;SDS011;37650;52.790;18.268;2022-12-07T17:49:11;7.70;;;5.50;;
40170;SDS011;37650;52.790;18.268;2022-12-07T17:52:36;10.10;;;5.60;;
40170;SDS011;37650;52.790;18.268;2022-12-07T17:56:17;13.00;;;6.30;;
40170;SDS011;37650;52.790;18.268;2022-12-07T17:59:40;10.00;;;6.30;;
40170;SDS011;37650;52.790;18.268;2022-12-07T18:03:05;12.60;;;6.60;;
40170;SDS011;37650;52.790;18.268;2022-12-07T18:06:29;8.20;;;4.80;;
40170;SDS011;37650;52.790;18.268;2022-12-07T18:09:51;9.00;;;4.80;;
40170;SDS011;37650;52.790;18.268;2022-12-07T18:13:13;12.80;;;5.70;;
40170;SDS011;37650;52.790;18.268;2022-12-07T18:16:53;9.80;;;6.30;;
40170;SDS011;37650;52.790;18.268;2022-12-07T18:20:15;10.80;;;5.30;;
40170;SDS011;37650;52.790;18.268;2022-12-07T18:23:37;8.20;;;5.40;;
40170;SDS011;37650;52.790;18.268;2022-12-07T18:26:58;8.30;;;5.20;;
40170;SDS011;37650;52.790;18.268;2022-12-07T18:30:20;12.50;;;6.10;;
40170;SDS011;37650;52.790;18.268;2022-12-07T18:33:43;12.20;;;6.20;;
40170;SDS011;37650;52.790;18.268;2022-12-07T18:37:07;14.00;;;6.00;;
40170;SDS011;37650;52.790;18.268;2022-12-07T18:43:51;7.20;;;4.50;;
40170;SDS011;37650;52.790;18.268;2022-12-07T18:47:14;8.30;;;5.10;;
40170;SDS011;37650;52.790;18.268;2022-12-07T18:50:41;7.70;;;4.40;;
40170;SDS011;37650;52.790;18.268;2022-12-07T18:54:03;10.50;;;5.30;;
40170;SDS011;37650;52.790;18.268;2022-12-07T18:57:26;10.70;;;5.00;;
40170;SDS011;37650;52.790;18.268;2022-12-07T19:00:49;10.60;;;5.40;;
40170;SDS011;37650;52.790;18.268;2022-12-07T19:04:12;11.40;;;5.80;;
40170;SDS011;37650;52.790;18.268;2022-12-07T19:07:34;10.40;;;6.70;;
40170;SDS011;37650;52.790;18.268;2022-12-07T19:10:57;12.10;;;5.80;;
40170;SDS011;37650;52.790;18.268;2022-12-07T19:14:39;16.80;;;6.00;;
40170;SDS011;37650;52.790;18.268;2022-12-07T19:18:02;26.60;;;13.50;;
40170;SDS011;37650;52.790;18.268;2022-12-07T19:21:24;25.30;;;8.00;;
40170;SDS011;37650;52.790;18.268;2022-12-07T19:24:49;25.40;;;11.20;;
40170;SDS011;37650;52.790;18.268;2022-12-07T19:28:13;20.20;;;7.80;;
40170;SDS011;37650;52.790;18.268;2022-12-07T19:31:35;11.30;;;7.30;;
40170;SDS011;37650;52.790;18.268;2022-12-07T19:34:59;11.70;;;6.60;;
40170;SDS011;37650;52.790;18.268;2022-12-07T19:38:28;12.90;;;8.00;;
40170;SDS011;37650;52.790;18.268;2022-12-07T19:41:51;17.80;;;8.40;;
40170;SDS011;37650;52.790;18.268;2022-12-07T19:45:13;16.80;;;7.20;;
40170;SDS011;37650;52.790;18.268;2022-12-07T19:48:36;26.90;;;10.50;;
40170;SDS011;37650;52.790;18.268;2022-12-07T19:52:02;17.30;;;8.50;;
40170;SDS011;37650;52.790;18.268;2022-12-07T19:55:27;15.80;;;9.20;;
40170;SDS011;37650;52.790;18.268;2022-12-07T20:02:13;14.50;;;6.80;;
40170;SDS011;37650;52.790;18.268;2022-12-07T20:05:37;33.30;;;17.90;;
40170;SDS011;37650;52.790;18.268;2022-12-07T20:08:59;28.70;;;12.00;;
40170;SDS011;37650;52.790;18.268;2022-12-07T20:12:26;19.70;;;8.40;;
40170;SDS011;37650;52.790;18.268;2022-12-07T20:16:17;12.50;;;6.30;;
40170;SDS011;37650;52.790;18.268;2022-12-07T20:19:41;14.90;;;8.50;;
40170;SDS011;37650;52.790;18.268;2022-12-07T20:23:04;14.10;;;6.40;;
40170;SDS011;37650;52.790;18.268;2022-12-07T20:26:27;15.60;;;7.10;;
40170;SDS011;37650;52.790;18.268;2022-12-07T20:29:51;18.10;;;8.20;;
40170;SDS011;37650;52.790;18.268;2022-12-07T20:33:15;44.50;;;18.40;;
40170;SDS011;37650;52.790;18.268;2022-12-07T20:36:40;18.20;;;10.40;;
40170;SDS011;37650;52.790;18.268;2022-12-07T20:40:05;17.00;;;7.20;;
40170;SDS011;37650;52.790;18.268;2022-12-07T20:43:28;12.00;;;6.00;;
40170;SDS011;37650;52.790;18.268;2022-12-07T20:46:51;19.50;;;11.20;;
40170;SDS011;37650;52.790;18.268;2022-12-07T20:50:14;25.70;;;9.70;;
40170;SDS011;37650;52.790;18.268;2022-12-07T20:53:36;15.40;;;7.20;;
40170;SDS011;37650;52.790;18.268;2022-12-07T20:56:58;20.10;;;9.20;;
40170;SDS011;37650;52.790;18.268;2022-12-07T21:00:20;19.50;;;7.10;;
40170;SDS011;37650;52.790;18.268;2022-12-07T21:03:43;18.10;;;8.90;;
40170;SDS011;37650;52.790;18.268;2022-12-07T21:07:06;19.10;;;6.60;;
40170;SDS011;37650;52.790;18.268;2022-12-07T21:10:28;26.40;;;9.30;;
40170;SDS011;37650;52.790;18.268;2022-12-07T21:17:11;19.20;;;7.40;;
40170;SDS011;37650;52.790;18.268;2022-12-07T21:20:33;71.70;;;34.80;;
40170;SDS011;37650;52.790;18.268;2022-12-07T21:23:54;50.40;;;17.30;;
40170;SDS011;37650;52.790;18.268;2022-12-07T21:30:37;23.60;;;9.00;;
40170;SDS011;37650;52.790;18.268;2022-12-07T21:34:00;21.10;;;7.40;;
40170;SDS011;37650;52.790;18.268;2022-12-07T21:37:22;14.60;;;5.20;;
40170;SDS011;37650;52.790;18.268;2022-12-07T21:40:44;44.30;;;16.90;;
40170;SDS011;37650;52.790;18.268;2022-12-07T21:44:06;32.70;;;10.90;;
40170;SDS011;37650;52.790;18.268;2022-12-07T21:47:31;13.50;;;6.00;;
40170;SDS011;37650;52.790;18.268;2022-12-07T21:50:52;12.10;;;4.80;;
40170;SDS011;37650;52.790;18.268;2022-12-07T21:54:14;19.80;;;8.30;;
40170;SDS011;37650;52.790;18.268;2022-12-07T21:57:35;11.70;;;5.30;;
40170;SDS011;37650;52.790;18.268;2022-12-07T22:00:57;43.90;;;17.30;;
40170;SDS011;37650;52.790;18.268;2022-12-07T22:04:21;60.30;;;17.40;;
40170;SDS011;37650;52.790;18.268;2022-12-07T22:07:44;34.30;;;10.70;;
40170;SDS011;37650;52.790;18.268;2022-12-07T22:11:05;26.00;;;8.10;;
40170;SDS011;37650;52.790;18.268;2022-12-07T22:14:27;15.00;;;5.10;;
40170;SDS011;37650;52.790;18.268;2022-12-07T22:18:06;24.20;;;8.00;;
40170;SDS011;37650;52.790;18.268;2022-12-07T22:21:28;28.00;;;8.50;;
40170;SDS011;37650;52.790;18.268;2022-12-07T22:24:50;14.70;;;5.60;;
40170;SDS011;37650;52.790;18.268;2022-12-07T22:28:12;14.40;;;5.70;;
40170;SDS011;37650;52.790;18.268;2022-12-07T22:31:33;16.90;;;6.40;;
40170;SDS011;37650;52.790;18.268;2022-12-07T22:34:54;14.90;;;6.00;;
40170;SDS011;37650;52.790;18.268;2022-12-07T22:38:16;14.50;;;5.20;;
40170;SDS011;37650;52.790;18.268;2022-12-07T22:41:37;56.10;;;20.30;;
40170;SDS011;37650;52.790;18.268;2022-12-07T22:44:59;25.10;;;7.40;;
40170;SDS011;37650;52.790;18.268;2022-12-07T22:48:21;15.80;;;5.00;;
40170;SDS011;37650;52.790;18.268;2022-12-07T22:51:43;14.90;;;5.60;;
40170;SDS011;37650;52.790;18.268;2022-12-07T22:55:04;14.20;;;4.50;;
40170;SDS011;37650;52.790;18.268;2022-12-07T22:58:26;9.30;;;4.80;;
40170;SDS011;37650;52.790;18.268;2022-12-07T23:01:48;11.80;;;4.80;;
40170;SDS011;37650;52.790;18.268;2022-12-07T23:05:09;11.00;;;4.70;;
40170;SDS011;37650;52.790;18.268;2022-12-07T23:08:31;10.30;;;4.30;;
40170;SDS011;37650;52.790;18.268;2022-12-07T23:11:52;12.20;;;4.50;;
40170;SDS011;37650;52.790;18.268;2022-12-07T23:15:33;13.50;;;4.50;;
40170;SDS011;37650;52.790;18.268;2022-12-07T23:18:54;8.00;;;3.40;;
40170;SDS011;37650;52.790;18.268;2022-12-07T23:22:16;9.80;;;4.40;;
40170;SDS011;37650;52.790;18.268;2022-12-07T23:25:37;10.80;;;3.30;;
40170;SDS011;37650;52.790;18.268;2022-12-07T23:28:59;10.30;;;4.00;;
40170;SDS011;37650;52.790;18.268;2022-12-07T23:32:20;12.30;;;5.10;;
40170;SDS011;37650;52.790;18.268;2022-12-07T23:35:42;9.00;;;3.40;;
40170;SDS011;37650;52.790;18.268;2022-12-07T23:39:04;6.80;;;3.30;;
40170;SDS011;37650;52.790;18.268;2022-12-07T23:42:25;6.80;;;2.40;;
40170;SDS011;37650;52.790;18.268;2022-12-07T23:45:46;7.20;;;3.10;;
40170;SDS011;37650;52.790;18.268;2022-12-07T23:49:09;8.50;;;2.70;;
40170;SDS011;37650;52.790;18.268;2022-12-07T23:52:32;5.70;;;2.90;;
40170;SDS011;37650;52.790;18.268;2022-12-07T23:55:53;7.60;;;3.10;;
40170;SDS011;37650;52.790;18.268;2022-12-07T23:59:14;8.60;;;2.50;;
